createdAt,value
2023-03-05T00:00:20.281Z,1.13
2023-03-05T00:02:48.157Z,1.20
2023-03-05T00:05:16.049Z,1.20
2023-03-05T00:07:45.179Z,1.98
2023-03-05T00:10:13.365Z,1.52
2023-03-05T00:12:41.490Z,1.10
2023-03-05T00:15:10.605Z,2.00
2023-03-05T00:17:38.424Z,1.00
2023-03-05T00:20:07.292Z,1.42
2023-03-05T00:22:35.553Z,1.50
2023-03-05T00:25:06.298Z,1.42
2023-03-05T00:27:34.310Z,1.40
2023-03-05T00:30:02.307Z,1.30
2023-03-05T00:32:30.796Z,1.20
2023-03-05T00:34:58.631Z,1.63
2023-03-05T00:37:26.434Z,0.93
2023-03-05T00:39:54.214Z,1.33
2023-03-05T00:42:23.479Z,1.40
2023-03-05T00:44:51.728Z,1.10
2023-03-05T00:47:19.505Z,1.15
2023-03-05T00:49:47.536Z,1.38
2023-03-05T00:52:15.365Z,1.25
2023-03-05T00:54:43.817Z,1.57
2023-03-05T00:57:11.606Z,1.35
2023-03-05T00:59:40.783Z,1.88
2023-03-05T01:02:08.575Z,1.25
2023-03-05T01:04:36.390Z,1.13
2023-03-05T01:07:06.957Z,1.37
2023-03-05T01:09:34.756Z,0.80
2023-03-05T01:12:02.540Z,1.10
2023-03-05T01:14:30.478Z,1.50
2023-03-05T01:16:59.667Z,1.30
2023-03-05T01:19:27.671Z,1.20
2023-03-05T01:21:55.936Z,1.70
2023-03-05T01:24:23.857Z,1.45
2023-03-05T01:26:52.246Z,1.73
2023-03-05T01:29:20.052Z,1.40
2023-03-05T01:31:48.094Z,1.27
2023-03-05T01:34:18.075Z,1.83
2023-03-05T01:36:45.988Z,1.45
2023-03-05T01:39:13.924Z,1.30
2023-03-05T01:41:41.773Z,1.70
2023-03-05T01:44:22.118Z,1.80
2023-03-05T01:46:50.370Z,1.70
2023-03-05T01:49:24.127Z,1.92
2023-03-05T01:52:01.712Z,1.77
2023-03-05T01:54:33.840Z,1.90
2023-03-05T01:57:07.571Z,2.10
2023-03-05T01:59:37.231Z,2.03
2023-03-05T02:02:08.009Z,1.92
2023-03-05T02:04:43.608Z,2.15
2023-03-05T02:07:12.446Z,2.10
2023-03-05T02:09:40.748Z,2.30
2023-03-05T02:12:11.363Z,1.90
2023-03-05T02:14:39.995Z,2.30
2023-03-05T02:17:08.798Z,2.00
2023-03-05T02:19:49.841Z,2.42
2023-03-05T02:22:20.551Z,2.13
2023-03-05T02:24:48.354Z,1.98
2023-03-05T02:27:17.517Z,2.10
2023-03-05T02:29:47.177Z,2.03
2023-03-05T02:32:15.227Z,2.80
2023-03-05T02:34:43.085Z,2.00
2023-03-05T02:37:11.024Z,2.15
2023-03-05T02:39:41.167Z,2.45
2023-03-05T02:42:10.342Z,2.10
2023-03-05T02:44:38.541Z,2.30
2023-03-05T02:47:06.872Z,2.37
2023-03-05T02:49:35.724Z,1.63
2023-03-05T02:52:04.435Z,2.22
2023-03-05T02:54:32.210Z,1.77
2023-03-05T02:57:01.354Z,2.03
2023-03-05T02:59:30.044Z,2.03
2023-03-05T03:01:57.969Z,1.77
2023-03-05T03:04:25.911Z,2.65
2023-03-05T03:06:53.828Z,2.10
2023-03-05T03:09:21.698Z,2.10
2023-03-05T03:11:50.378Z,1.60
2023-03-05T03:14:19.581Z,1.90
2023-03-05T03:16:47.459Z,1.50
2023-03-05T03:19:16.454Z,1.63
2023-03-05T03:21:44.242Z,1.60
2023-03-05T03:24:12.042Z,1.67
2023-03-05T03:26:39.879Z,1.95
2023-03-05T03:29:07.752Z,2.00
2023-03-05T03:31:37.127Z,1.63
2023-03-05T03:34:04.875Z,2.03
2023-03-05T03:36:32.997Z,1.87
2023-03-05T03:39:00.754Z,1.48
2023-03-05T03:41:28.537Z,1.90
2023-03-05T03:43:56.343Z,1.42
2023-03-05T03:46:31.560Z,1.63
2023-03-05T03:49:00.806Z,1.50
2023-03-05T03:51:28.692Z,1.60
2023-03-05T03:53:57.666Z,1.65
2023-03-05T03:56:25.509Z,1.58
2023-03-05T03:58:54.007Z,2.22
2023-03-05T04:01:22.608Z,1.67
2023-03-05T04:03:50.476Z,1.95
2023-03-05T04:06:19.601Z,2.08
2023-03-05T04:08:47.431Z,1.70
2023-03-05T04:11:19.264Z,1.60
2023-03-05T04:13:47.223Z,1.63
2023-03-05T04:16:16.881Z,1.63
2023-03-05T04:18:44.760Z,1.65
2023-03-05T04:21:12.697Z,1.25
2023-03-05T04:23:41.902Z,1.58
2023-03-05T04:26:09.717Z,1.03
2023-03-05T04:28:37.685Z,1.40
2023-03-05T04:31:06.221Z,1.67
2023-03-05T04:33:34.130Z,1.17
2023-03-05T04:36:02.071Z,1.48
2023-03-05T04:38:29.878Z,1.33
2023-03-05T04:40:59.040Z,2.00
2023-03-05T04:43:26.857Z,2.08
2023-03-05T04:45:56.480Z,1.25
2023-03-05T04:48:24.693Z,1.42
2023-03-05T04:50:52.598Z,1.10
2023-03-05T04:53:20.406Z,1.60
2023-03-05T04:55:53.547Z,1.30
2023-03-05T04:58:23.381Z,1.60
2023-03-05T05:00:51.206Z,1.60
2023-03-05T05:03:19.185Z,1.63
2023-03-05T05:05:47.053Z,1.40
2023-03-05T05:08:14.797Z,2.00
2023-03-05T05:10:42.560Z,1.10
2023-03-05T05:13:10.313Z,1.30
2023-03-05T05:15:41.562Z,1.10
2023-03-05T05:18:09.384Z,1.48
2023-03-05T05:20:37.208Z,1.63
2023-03-05T05:23:05.010Z,1.30
2023-03-05T05:25:33.476Z,2.13
2023-03-05T05:28:01.307Z,1.60
2023-03-05T05:30:29.122Z,1.50
2023-03-05T05:32:58.772Z,1.55
2023-03-05T05:35:26.602Z,1.70
2023-03-05T05:37:54.476Z,1.30
2023-03-05T05:40:22.631Z,1.63
2023-03-05T05:42:50.427Z,1.58
2023-03-05T05:45:18.454Z,1.70
2023-03-05T05:47:46.310Z,1.88
2023-03-05T05:50:16.439Z,1.65
2023-03-05T05:52:44.288Z,1.47
2023-03-05T05:55:13.095Z,1.83
2023-03-05T05:57:40.920Z,1.55
2023-03-05T06:00:11.606Z,1.50
2023-03-05T06:02:39.922Z,1.65
2023-03-05T06:05:09.778Z,1.20
2023-03-05T06:07:38.930Z,1.38
2023-03-05T06:10:08.254Z,1.38
2023-03-05T06:12:36.132Z,1.30
2023-03-05T06:15:04.082Z,1.40
2023-03-05T06:17:31.905Z,1.27
2023-03-05T06:19:59.832Z,1.27
2023-03-05T06:22:27.983Z,1.38
2023-03-05T06:24:57.135Z,1.02
2023-03-05T06:27:24.972Z,1.30
2023-03-05T06:29:54.132Z,1.13
2023-03-05T06:32:21.971Z,0.88
2023-03-05T06:34:49.833Z,1.30
2023-03-05T06:37:17.736Z,1.30
2023-03-05T06:39:45.936Z,1.38
2023-03-05T06:42:17.636Z,1.20
2023-03-05T06:44:47.183Z,0.93
2023-03-05T06:47:16.096Z,1.23
2023-03-05T06:49:43.896Z,1.30
2023-03-05T06:52:12.743Z,0.85
2023-03-05T06:54:40.562Z,1.30
2023-03-05T06:57:08.331Z,1.23
2023-03-05T06:59:37.463Z,1.65
2023-03-05T07:02:05.381Z,1.30
2023-03-05T07:04:33.178Z,1.70
2023-03-05T07:07:01.044Z,1.47
2023-03-05T07:09:30.651Z,1.40
2023-03-05T07:11:58.480Z,1.30
2023-03-05T07:14:26.323Z,1.27
2023-03-05T07:16:55.439Z,1.30
2023-03-05T07:19:23.304Z,1.20
2023-03-05T07:21:51.068Z,1.65
2023-03-05T07:24:18.874Z,1.60
2023-03-05T07:26:48.642Z,1.40
2023-03-05T07:29:16.800Z,1.40
2023-03-05T07:31:44.680Z,1.70
2023-03-05T07:34:13.788Z,1.52
2023-03-05T07:36:42.326Z,1.27
2023-03-05T07:39:12.520Z,1.45
2023-03-05T07:41:40.499Z,1.40
2023-03-05T07:44:08.320Z,1.20
2023-03-05T07:46:36.529Z,1.50
2023-03-05T07:49:04.825Z,1.33
2023-03-05T07:51:34.062Z,1.67
2023-03-05T07:54:01.947Z,1.40
2023-03-05T07:56:32.390Z,1.20
2023-03-05T07:59:01.307Z,1.50
2023-03-05T08:01:30.066Z,1.45
2023-03-05T08:03:57.901Z,1.23
2023-03-05T08:06:26.077Z,1.35
2023-03-05T08:08:55.604Z,1.60
2023-03-05T08:11:23.539Z,1.60
2023-03-05T08:13:51.524Z,1.40
2023-03-05T08:16:21.394Z,1.90
2023-03-05T08:18:49.528Z,2.13
2023-03-05T08:21:19.109Z,2.00
2023-03-05T08:23:47.358Z,2.08
2023-03-05T08:26:19.644Z,1.73
2023-03-05T08:28:47.857Z,2.03
2023-03-05T08:31:16.868Z,2.08
2023-03-05T08:33:44.835Z,1.90
2023-03-05T08:36:13.304Z,2.08
2023-03-05T08:38:41.894Z,1.90
2023-03-05T08:41:09.815Z,2.20
2023-03-05T08:43:39.015Z,1.67
2023-03-05T08:46:07.088Z,2.03
2023-03-05T08:48:35.449Z,2.17
2023-03-05T08:51:07.721Z,1.70
2023-03-05T08:53:35.798Z,1.73
2023-03-05T08:56:04.110Z,1.90
2023-03-05T08:58:32.373Z,1.80
2023-03-05T09:01:01.568Z,1.83
2023-03-05T09:03:29.348Z,1.90
2023-03-05T09:06:01.369Z,1.50
2023-03-05T09:08:29.327Z,1.70
2023-03-05T09:10:57.895Z,1.67
2023-03-05T09:13:25.879Z,1.52
2023-03-05T09:15:57.900Z,1.73
2023-03-05T09:18:27.538Z,1.52
2023-03-05T09:20:55.587Z,1.85
2023-03-05T09:23:24.209Z,1.70
2023-03-05T09:25:52.308Z,1.60
2023-03-05T09:28:20.154Z,1.90
2023-03-05T09:30:47.910Z,1.95
2023-03-05T09:33:15.741Z,1.92
2023-03-05T09:35:44.953Z,1.63
2023-03-05T09:38:12.808Z,1.60
2023-03-05T09:40:46.922Z,1.60
2023-03-05T09:43:27.216Z,1.60
2023-03-05T09:46:10.348Z,1.70
2023-03-05T09:48:49.243Z,1.37
2023-03-05T09:51:23.878Z,1.77
2023-03-05T09:54:02.688Z,1.50
2023-03-05T09:56:33.555Z,1.27
2023-03-05T09:59:06.759Z,1.13
2023-03-05T10:01:39.759Z,1.00
2023-03-05T10:04:12.528Z,1.40
2023-03-05T10:06:50.032Z,1.50
2023-03-05T10:09:29.300Z,1.00
2023-03-05T10:12:00.988Z,1.27
2023-03-05T10:14:31.215Z,0.90
2023-03-05T10:17:25.143Z,1.45
2023-03-05T10:20:23.546Z,1.10
2023-03-05T10:23:05.253Z,1.10
2023-03-05T10:25:51.115Z,0.85
2023-03-05T10:28:24.072Z,0.60
2023-03-05T10:31:04.852Z,0.80
2023-03-05T10:33:39.909Z,0.85
2023-03-05T10:36:30.954Z,0.70
2023-03-05T10:39:29.446Z,0.70
2023-03-05T10:42:06.110Z,0.70
2023-03-05T10:44:38.512Z,0.90
2023-03-05T10:47:15.847Z,1.60
2023-03-05T10:49:51.108Z,1.10
2023-03-05T10:52:22.167Z,1.20
2023-03-05T10:54:51.516Z,1.20
2023-03-05T10:57:20.762Z,0.85
2023-03-05T10:59:51.190Z,1.35
2023-03-05T11:02:20.968Z,1.00
2023-03-05T11:04:49.304Z,0.98
2023-03-05T11:07:38.665Z,1.10
2023-03-05T11:10:17.332Z,1.40
2023-03-05T11:12:45.958Z,1.10
2023-03-05T11:15:27.638Z,1.05
2023-03-05T11:18:16.952Z,1.13
2023-03-05T11:20:44.859Z,0.83
2023-03-05T11:23:14.913Z,1.00
2023-03-05T11:26:02.021Z,1.10
2023-03-05T11:28:34.218Z,0.80
2023-03-05T11:31:07.412Z,0.80
2023-03-05T11:33:36.687Z,0.80
2023-03-05T11:36:23.579Z,1.10
2023-03-05T11:38:54.589Z,0.85
2023-03-05T11:41:38.309Z,0.90
2023-03-05T11:44:13.652Z,1.00
2023-03-05T11:46:45.622Z,0.67
2023-03-05T11:49:17.583Z,0.85
2023-03-05T11:51:53.314Z,0.80
2023-03-05T11:54:27.929Z,0.88
2023-03-05T11:56:57.537Z,0.88
2023-03-05T11:59:30.457Z,1.00
2023-03-05T12:01:59.346Z,1.13
2023-03-05T12:04:28.442Z,0.90
2023-03-05T12:06:59.504Z,1.30
2023-03-05T12:09:37.804Z,0.77
2023-03-05T12:12:19.344Z,0.80
2023-03-05T12:14:51.383Z,0.85
2023-03-05T12:17:26.381Z,0.75
2023-03-05T12:19:59.628Z,0.82
2023-03-05T12:22:35.053Z,1.00
2023-03-05T12:25:26.753Z,0.93
2023-03-05T12:27:56.375Z,0.90
2023-03-05T12:30:59.425Z,0.90
2023-03-05T12:33:33.521Z,0.60
2023-03-05T12:36:35.944Z,0.77
2023-03-05T12:39:47.599Z,0.50
2023-03-05T12:42:58.154Z,0.80
2023-03-05T12:45:48.255Z,1.08
2023-03-05T12:48:42.361Z,0.60
2023-03-05T12:51:30.919Z,0.55
2023-03-05T12:53:59.585Z,0.50
2023-03-05T12:56:32.634Z,0.60
2023-03-05T12:59:04.548Z,0.77
2023-03-05T13:01:43.249Z,0.73
2023-03-05T13:04:19.819Z,0.65
2023-03-05T13:06:58.321Z,0.60
2023-03-05T13:09:29.627Z,0.60
2023-03-05T13:11:58.246Z,0.80
2023-03-05T13:14:44.795Z,0.70
2023-03-05T13:17:44.355Z,0.70
2023-03-05T13:20:31.764Z,0.63
2023-03-05T13:23:23.828Z,0.75
2023-03-05T13:26:03.947Z,0.60
2023-03-05T13:28:33.813Z,0.70
2023-03-05T13:31:04.887Z,0.75
2023-03-05T13:33:37.346Z,0.87
2023-03-05T13:36:06.508Z,0.60
2023-03-05T13:38:37.635Z,0.90
2023-03-05T13:41:20.531Z,0.82
2023-03-05T13:43:50.366Z,0.90
2023-03-05T13:46:30.213Z,0.80
2023-03-05T13:49:18.372Z,0.52
2023-03-05T13:51:48.798Z,0.90
2023-03-05T13:54:18.879Z,0.73
2023-03-05T13:56:52.501Z,0.70
2023-03-05T13:59:23.317Z,0.60
2023-03-05T14:01:53.441Z,0.70
2023-03-05T14:04:28.629Z,0.70
2023-03-05T14:07:00.190Z,0.50
2023-03-05T14:09:30.852Z,0.52
2023-03-05T14:12:01.990Z,0.70
2023-03-05T14:14:32.292Z,0.57
2023-03-05T14:17:22.021Z,0.50
2023-03-05T14:19:52.261Z,0.50
2023-03-05T14:22:35.517Z,0.60
2023-03-05T14:25:04.723Z,0.60
2023-03-05T14:27:35.347Z,0.60
2023-03-05T14:30:04.163Z,0.98
2023-03-05T14:32:35.679Z,0.60
2023-03-05T14:35:07.255Z,0.77
2023-03-05T14:37:37.953Z,0.70
2023-03-05T14:40:08.156Z,0.60
2023-03-05T14:42:39.176Z,0.70
2023-03-05T14:45:14.113Z,0.77
2023-03-05T14:47:42.350Z,0.60
2023-03-05T14:50:16.968Z,0.40
2023-03-05T14:52:46.331Z,0.45
2023-03-05T14:55:16.527Z,0.80
2023-03-05T14:57:45.049Z,0.77
2023-03-05T15:00:17.355Z,0.77
2023-03-05T15:02:45.407Z,1.10
2023-03-05T15:05:15.667Z,0.70
2023-03-05T15:07:45.765Z,0.63
2023-03-05T15:10:15.893Z,0.60
2023-03-05T15:12:44.325Z,0.68
2023-03-05T15:15:14.861Z,0.80
2023-03-05T15:17:47.538Z,0.70
2023-03-05T15:20:20.475Z,0.63
2023-03-05T15:22:48.684Z,0.70
2023-03-05T15:25:17.936Z,0.80
2023-03-05T15:27:46.499Z,0.50
2023-03-05T15:30:23.403Z,0.60
2023-03-05T15:32:52.083Z,0.80
2023-03-05T15:35:22.642Z,0.55
2023-03-05T15:37:51.091Z,0.70
2023-03-05T15:40:21.093Z,0.70
2023-03-05T15:42:49.683Z,0.55
2023-03-05T15:45:17.944Z,0.50
2023-03-05T15:47:45.842Z,0.57
2023-03-05T15:50:13.736Z,0.60
2023-03-05T15:52:43.806Z,0.70
2023-03-05T15:55:12.754Z,0.88
2023-03-05T15:57:45.275Z,0.43
2023-03-05T16:00:16.243Z,0.82
2023-03-05T16:02:44.276Z,0.70
2023-03-05T16:05:12.524Z,0.60
2023-03-05T16:07:47.312Z,0.52
2023-03-05T16:10:20.302Z,0.68
2023-03-05T16:12:51.137Z,0.30
2023-03-05T16:15:21.628Z,0.70
2023-03-05T16:17:52.070Z,0.57
2023-03-05T16:20:20.744Z,1.27
2023-03-05T16:22:50.544Z,0.40
2023-03-05T16:25:19.198Z,0.40
2023-03-05T16:27:47.412Z,0.40
2023-03-05T16:30:17.107Z,0.50
2023-03-05T16:32:45.509Z,0.57
2023-03-05T16:35:13.488Z,0.43
2023-03-05T16:37:42.226Z,0.47
2023-03-05T16:40:15.060Z,0.52
2023-03-05T16:42:43.990Z,0.53
2023-03-05T16:45:15.021Z,0.60
2023-03-05T16:47:43.408Z,0.60
2023-03-05T16:50:13.731Z,0.40
2023-03-05T16:52:41.796Z,0.47
2023-03-05T16:55:11.540Z,0.70
2023-03-05T16:57:40.544Z,0.80
2023-03-05T17:00:11.725Z,0.70
2023-03-05T17:02:40.457Z,0.60
2023-03-05T17:05:08.867Z,0.63
2023-03-05T17:07:36.761Z,0.37
2023-03-05T17:10:05.244Z,0.50
2023-03-05T17:12:34.621Z,0.55
2023-03-05T17:15:02.644Z,0.82
2023-03-05T17:17:31.794Z,0.65
2023-03-05T17:20:00.179Z,0.60
2023-03-05T17:22:28.437Z,0.60
2023-03-05T17:24:56.493Z,0.98
2023-03-05T17:27:24.375Z,0.57
2023-03-05T17:29:54.445Z,0.60
2023-03-05T17:32:22.595Z,0.80
2023-03-05T17:34:54.076Z,1.05
2023-03-05T17:37:22.142Z,0.98
2023-03-05T17:39:50.268Z,0.63
2023-03-05T17:42:20.506Z,0.80
2023-03-05T17:47:18.600Z,0.90
2023-03-05T17:49:46.562Z,1.25
2023-03-05T17:52:14.603Z,0.80
2023-03-05T17:54:42.435Z,0.70
2023-03-05T17:57:10.334Z,0.90
2023-03-05T17:59:38.186Z,1.00
2023-03-05T18:02:06.336Z,0.88
2023-03-05T18:04:35.726Z,0.80
2023-03-05T18:07:04.015Z,0.90
2023-03-05T18:09:32.326Z,0.80
2023-03-05T18:12:00.463Z,0.80
2023-03-05T18:14:28.465Z,0.70
2023-03-05T18:16:58.101Z,0.82
2023-03-05T18:19:26.318Z,1.25
2023-03-05T18:21:55.738Z,0.90
2023-03-05T18:24:23.850Z,2.35
2023-03-05T18:26:52.188Z,3.05
2023-03-05T18:29:20.506Z,2.28
2023-03-05T18:31:48.449Z,2.13
2023-03-05T18:34:17.604Z,1.57
2023-03-05T18:36:45.849Z,1.55
2023-03-05T18:39:16.311Z,1.35
2023-03-05T18:41:44.425Z,0.98
2023-03-05T18:44:13.418Z,0.60
2023-03-05T18:46:42.512Z,0.70
2023-03-05T18:49:10.730Z,0.82
2023-03-05T18:51:41.560Z,0.80
2023-03-05T18:54:09.503Z,0.60
2023-03-05T18:56:39.220Z,0.95
2023-03-05T18:59:07.213Z,0.80
2023-03-05T19:01:37.217Z,0.80
2023-03-05T19:04:06.348Z,1.10
2023-03-05T19:06:36.111Z,1.30
2023-03-05T19:09:09.812Z,1.00
2023-03-05T19:11:39.276Z,1.00
2023-03-05T19:14:07.341Z,1.00
2023-03-05T19:16:43.357Z,1.10
2023-03-05T19:19:16.334Z,0.70
2023-03-05T19:21:46.685Z,0.80
2023-03-05T19:24:15.205Z,0.80
2023-03-05T19:26:44.907Z,0.88
2023-03-05T19:29:13.683Z,1.25
2023-03-05T19:31:42.364Z,1.10
2023-03-05T19:34:10.568Z,1.27
2023-03-05T19:36:38.748Z,1.03
2023-03-05T19:39:08.729Z,0.95
2023-03-05T19:41:37.676Z,0.82
2023-03-05T19:44:07.663Z,1.00
2023-03-05T19:46:36.007Z,0.85
2023-03-05T19:49:04.790Z,1.10
2023-03-05T19:51:32.947Z,1.30
2023-03-05T19:54:03.467Z,0.98
2023-03-05T19:56:31.948Z,1.45
2023-03-05T19:59:00.883Z,1.10
2023-03-05T20:01:30.381Z,1.00
2023-03-05T20:04:00.347Z,1.10
2023-03-05T20:06:30.924Z,1.00
2023-03-05T20:08:59.819Z,1.10
2023-03-05T20:11:28.620Z,1.08
2023-03-05T20:13:57.523Z,1.10
2023-03-05T20:16:27.913Z,1.00
2023-03-05T20:18:58.179Z,1.58
2023-03-05T20:21:29.011Z,1.20
2023-03-05T20:23:58.774Z,1.38
2023-03-05T20:26:27.986Z,1.40
2023-03-05T20:28:57.574Z,1.35
2023-03-05T20:31:28.153Z,1.88
2023-03-05T20:33:57.388Z,1.40
2023-03-05T20:36:25.733Z,1.60
2023-03-05T20:38:53.881Z,1.60
2023-03-05T20:41:21.801Z,1.20
2023-03-05T20:43:51.600Z,1.50
2023-03-05T20:46:21.696Z,1.38
2023-03-05T20:48:51.775Z,1.60
2023-03-05T20:51:24.481Z,1.60
2023-03-05T20:53:56.726Z,1.75
2023-03-05T20:56:26.266Z,1.70
2023-03-05T20:58:55.334Z,1.23
2023-03-05T21:01:23.348Z,1.15
2023-03-05T21:03:53.611Z,1.23
2023-03-05T21:06:22.896Z,1.48
2023-03-05T21:08:51.734Z,1.20
2023-03-05T21:11:20.473Z,1.40
2023-03-05T21:13:49.048Z,1.20
2023-03-05T21:16:19.667Z,1.30
2023-03-05T21:18:48.067Z,1.25
2023-03-05T21:21:19.057Z,1.70
2023-03-05T21:23:48.577Z,1.50
2023-03-05T21:26:16.516Z,1.40
2023-03-05T21:28:44.580Z,1.20
2023-03-05T21:31:17.617Z,1.40
2023-03-05T21:33:45.565Z,1.30
2023-03-05T21:36:13.732Z,1.20
2023-03-05T21:38:41.632Z,1.20
2023-03-05T21:41:11.310Z,1.60
2023-03-05T21:43:39.131Z,1.50
2023-03-05T21:46:07.139Z,1.75
2023-03-05T21:48:35.008Z,1.23
2023-03-05T21:51:07.588Z,2.13
2023-03-05T21:53:35.523Z,1.70
2023-03-05T21:56:20.949Z,2.10
2023-03-05T21:58:51.660Z,1.58
2023-03-05T22:01:21.140Z,2.10
2023-03-05T22:03:49.908Z,1.80
2023-03-05T22:06:19.892Z,2.17
2023-03-05T22:08:48.280Z,1.80
2023-03-05T22:11:19.365Z,1.90
2023-03-05T22:13:47.594Z,2.08
2023-03-05T22:16:23.994Z,1.55
2023-03-05T22:18:52.467Z,1.87
2023-03-05T22:21:22.269Z,1.80
2023-03-05T22:23:50.717Z,1.90
2023-03-05T22:26:18.630Z,1.70
2023-03-05T22:28:47.025Z,1.90
2023-03-05T22:31:23.555Z,2.17
2023-03-05T22:33:51.676Z,1.73
2023-03-05T22:36:20.198Z,2.17
2023-03-05T22:38:48.025Z,1.95
2023-03-05T22:41:19.608Z,1.90
2023-03-05T22:43:48.080Z,2.00
2023-03-05T22:46:18.136Z,1.67
2023-03-05T22:48:48.118Z,1.98
2023-03-05T22:51:16.997Z,1.83
2023-03-05T22:53:45.063Z,2.00
2023-03-05T22:56:14.788Z,1.63
2023-03-05T22:58:43.241Z,1.45
2023-03-05T23:01:17.363Z,1.60
2023-03-05T23:03:45.208Z,2.10
2023-03-05T23:06:14.362Z,1.50
2023-03-05T23:08:42.169Z,1.60
2023-03-05T23:11:12.254Z,1.50
2023-03-05T23:13:40.308Z,1.67
2023-03-05T23:16:09.418Z,1.90
2023-03-05T23:18:37.758Z,1.58
2023-03-05T23:21:06.138Z,1.80
2023-03-05T23:23:35.438Z,1.90
2023-03-05T23:26:03.288Z,1.50
2023-03-05T23:28:31.107Z,1.88
2023-03-05T23:30:59.003Z,1.90
2023-03-05T23:33:26.807Z,2.23
2023-03-05T23:35:56.390Z,1.80
2023-03-05T23:38:25.435Z,1.50
2023-03-05T23:40:59.069Z,2.20
2023-03-05T23:43:28.627Z,1.67
2023-03-05T23:45:57.367Z,2.40
2023-03-05T23:48:26.935Z,2.13
2023-03-05T23:50:55.383Z,2.10
2023-03-05T23:53:25.386Z,2.42
2023-03-05T23:55:55.374Z,1.77
2023-03-05T23:58:23.703Z,2.17
